Time;durP1;ratioP1;P1;durP2;ratioP2;P2;SDS_P1;SDS_P2;PMS_P1;PMS_P2;Temp;Humidity;BMP_temperature;BMP_pressure;BME280_temperature;BME280_humidity;BME280_pressure;Samples;Min_cycle;Max_cycle;Signal;HPM_P1;HPM_P2
2022/01/23 00:02:02;;;;;;;41.63;5.33;;;;;;;6.07;100.00;99360.56;5119280;28;20600;-74
2022/01/23 00:04:29;;;;;;;17.83;3.50;;;;;;;6.01;100.00;99361.38;5120090;28;20596;-74
2022/01/23 00:06:56;;;;;;;64.53;7.20;;;;;;;6.08;100.00;99371.00;5122741;28;20610;-73
2022/01/23 00:09:24;;;;;;;30.30;4.70;;;;;;;6.00;100.00;99370.38;5121737;28;20607;-77
2022/01/23 00:11:54;;;;;;;13.17;3.40;;;;;;;5.93;100.00;99371.16;5118379;28;20615;-74
2022/01/23 00:17:20;;;;;;;38.37;5.90;;;;;;;6.12;100.00;99364.28;5122001;28;21196;-76
2022/01/23 00:19:48;;;;;;;8.73;3.07;;;;;;;6.14;100.00;99349.00;5117437;28;20593;-75
2022/01/23 00:22:15;;;;;;;29.23;5.67;;;;;;;6.19;100.00;99343.91;5118407;28;20642;-74
2022/01/23 00:30:26;;;;;;;26.97;5.60;;;;;;;5.99;100.00;99356.28;5075490;28;20619;-75
2022/01/23 00:32:54;;;;;;;37.10;5.23;;;;;;;5.92;100.00;99350.13;5117987;28;20607;-75
2022/01/23 00:35:21;;;;;;;39.97;5.63;;;;;;;5.92;100.00;99352.78;5118249;28;21277;-77
2022/01/23 00:37:48;;;;;;;45.67;6.90;;;;;;;5.95;100.00;99350.56;5120782;28;20600;-76
2022/01/23 00:40:15;;;;;;;33.70;4.73;;;;;;;5.93;100.00;99346.47;5121789;28;20584;-75
2022/01/23 00:42:43;;;;;;;22.53;4.60;;;;;;;5.97;100.00;99348.50;5117447;28;20632;-75
2022/01/23 00:45:29;;;;;;;34.07;6.00;;;;;;;5.93;100.00;99354.41;5117376;28;20643;-74
2022/01/23 00:48:01;;;;;;;24.77;4.33;;;;;;;5.94;100.00;99353.41;5117328;28;20615;-76
2022/01/23 00:50:28;;;;;;;20.60;4.20;;;;;;;6.01;100.00;99348.13;5119418;28;20627;-77
2022/01/23 00:52:55;;;;;;;57.40;6.83;;;;;;;6.04;100.00;99358.31;5121805;28;20604;-77
2022/01/23 00:55:22;;;;;;;22.57;5.23;;;;;;;5.90;100.00;99357.47;5121239;28;20766;-74
2022/01/23 00:57:50;;;;;;;63.90;7.90;;;;;;;5.89;100.00;99355.81;5120531;28;20621;-76
2022/01/23 01:00:18;;;;;;;27.47;5.13;;;;;;;5.75;100.00;99359.41;5121462;28;20602;-76
2022/01/23 01:02:45;;;;;;;26.97;5.00;;;;;;;5.76;100.00;99361.84;5110308;28;20630;-75
2022/01/23 01:05:12;;;;;;;24.13;5.37;;;;;;;5.79;100.00;99356.16;5117050;28;20624;-79
2022/01/23 01:07:39;;;;;;;35.57;6.73;;;;;;;5.84;100.00;99361.69;5109359;28;20608;-76
2022/01/23 01:10:11;;;;;;;28.57;6.20;;;;;;;5.92;100.00;99363.38;5109609;28;20593;-76
2022/01/23 01:12:42;;;;;;;51.77;7.03;;;;;;;6.00;100.00;99362.41;5122710;28;20596;-76
2022/01/23 01:15:39;;;;;;;28.60;6.60;;;;;;;6.03;100.00;99365.50;5124637;28;20606;-76
2022/01/23 01:31:54;;;;;;;35.13;7.83;;;;;;;5.67;100.00;99372.81;5120492;28;20609;-76
2022/01/23 01:34:26;;;;;;;60.63;8.53;;;;;;;5.66;100.00;99377.31;5121389;28;20617;-76
2022/01/23 01:36:54;;;;;;;26.30;5.80;;;;;;;5.77;100.00;99395.31;5128088;28;20598;-76
2022/01/23 01:39:23;;;;;;;49.50;8.30;;;;;;;5.78;100.00;99390.84;5130622;28;20603;-77
2022/01/23 01:41:50;;;;;;;45.50;7.20;;;;;;;5.64;100.00;99378.50;5125874;28;20648;-77
2022/01/23 01:44:18;;;;;;;31.37;6.83;;;;;;;5.79;100.00;99377.38;5125614;28;20600;-76
2022/01/23 01:46:45;;;;;;;52.27;7.67;;;;;;;5.83;100.00;99383.09;5118518;28;20592;-76
2022/01/23 01:49:13;;;;;;;28.37;5.97;;;;;;;5.91;100.00;99377.69;5116774;28;20596;-76
2022/01/23 01:51:43;;;;;;;56.20;8.60;;;;;;;5.97;100.00;99380.34;5123845;28;20600;-76
2022/01/23 01:54:13;;;;;;;31.30;7.87;;;;;;;6.01;100.00;99380.75;5119777;28;21180;-76
2022/01/23 01:56:49;;;;;;;45.60;9.23;;;;;;;6.01;100.00;99385.25;5127814;28;20619;-76
2022/01/23 01:59:34;;;;;;;17.20;6.00;;;;;;;6.06;100.00;99383.66;5120662;28;21082;-76
2022/01/23 02:10:17;;;;;;;22.97;7.77;;;;;;;6.13;100.00;99375.72;5080378;28;20600;-76
2022/01/23 02:13:10;;;;;;;32.33;7.77;;;;;;;6.09;100.00;99377.94;5120406;28;20841;-76
2022/01/23 02:18:30;;;;;;;26.47;5.67;;;;;;;6.07;100.00;99371.19;5122232;28;20603;-76
2022/01/23 02:51:30;;;;;;;36.30;5.50;;;;;;;5.87;100.00;99344.59;5123796;27;20596;-76
2022/01/23 02:56:44;;;;;;;36.40;5.53;;;;;;;6.05;100.00;99359.97;5120337;28;20604;-76
2022/01/23 02:59:20;;;;;;;32.67;6.13;;;;;;;6.07;100.00;99358.75;5119053;28;20608;-76
2022/01/23 03:02:00;;;;;;;47.77;6.07;;;;;;;6.00;100.00;99354.47;5120277;28;20585;-76
2022/01/23 03:04:27;;;;;;;46.10;5.93;;;;;;;5.92;100.00;99372.16;5121061;28;21025;-76
2022/01/23 03:07:09;;;;;;;27.90;6.20;;;;;;;5.94;100.00;99380.72;5123618;28;20647;-76
2022/01/23 03:09:58;;;;;;;36.77;5.60;;;;;;;5.95;100.00;99386.84;5120798;28;21152;-76
2022/01/23 03:15:12;;;;;;;18.70;5.10;;;;;;;6.07;100.00;99385.28;5105294;28;20603;-77
2022/01/23 03:29:01;;;;;;;39.13;6.37;;;;;;;6.19;100.00;99383.69;5116650;28;20615;-76
2022/01/23 03:31:30;;;;;;;28.73;6.17;;;;;;;6.13;100.00;99381.03;5120033;28;20653;-77
2022/01/23 03:33:57;;;;;;;55.57;8.33;;;;;;;6.01;100.00;99387.88;5118476;28;20612;-77
2022/01/23 03:36:24;;;;;;;77.07;8.33;;;;;;;5.99;100.00;99380.16;5119210;28;20597;-76
2022/01/23 03:38:52;;;;;;;26.93;6.53;;;;;;;6.05;100.00;99387.31;5121086;28;20620;-76
2022/01/23 03:41:20;;;;;;;31.13;6.50;;;;;;;6.04;100.00;99384.84;5122245;28;20600;-77
2022/01/23 03:43:47;;;;;;;41.37;7.43;;;;;;;6.03;100.00;99389.34;5109336;28;20980;-77
2022/01/23 03:46:35;;;;;;;52.70;8.13;;;;;;;6.10;100.00;99390.19;5108914;28;20650;-76
2022/01/23 03:51:48;;;;;;;39.10;8.50;;;;;;;6.14;100.00;99417.97;5117129;28;20623;-76
2022/01/23 03:54:15;;;;;;;75.27;9.23;;;;;;;6.09;100.00;99419.56;5126100;28;20627;-76
2022/01/23 03:56:43;;;;;;;25.33;6.00;;;;;;;6.16;100.00;99410.59;5118825;28;20597;-76
2022/01/23 03:59:09;;;;;;;81.97;10.47;;;;;;;6.23;100.00;99402.69;5118180;28;20604;-76
2022/01/23 04:01:36;;;;;;;42.00;8.33;;;;;;;6.22;100.00;99409.03;5120532;28;20609;-76
2022/01/23 04:04:10;;;;;;;46.23;7.80;;;;;;;6.26;100.00;99400.44;5121696;28;20600;-77
2022/01/23 04:06:36;;;;;;;44.80;8.70;;;;;;;6.24;100.00;99402.50;5119138;28;20595;-77
2022/01/23 04:09:03;;;;;;;53.83;8.87;;;;;;;6.12;100.00;99404.09;5118067;28;20596;-77
2022/01/23 04:11:30;;;;;;;42.73;8.27;;;;;;;6.17;100.00;99384.91;5119789;28;20605;-76
2022/01/23 04:14:02;;;;;;;36.90;8.03;;;;;;;6.23;100.00;99397.38;5121655;28;20595;-76
2022/01/23 04:16:48;;;;;;;53.10;9.67;;;;;;;6.27;100.00;99382.69;5120083;28;20596;-77
2022/01/23 04:19:33;;;;;;;51.03;9.63;;;;;;;6.29;100.00;99378.81;5117003;28;20616;-76
2022/01/23 04:33:28;;;;;;;42.60;8.73;;;;;;;6.25;100.00;99392.72;5086923;28;20611;-76
2022/01/23 05:00:36;;;;;;;29.23;7.47;;;;;;;6.08;100.00;99397.53;5124306;28;20596;-76
2022/01/23 05:05:59;;;;;;;58.87;8.77;;;;;;;6.07;100.00;99401.19;5111346;28;20612;-77
2022/01/23 05:08:27;;;;;;;23.67;6.60;;;;;;;6.04;100.00;99404.22;5128331;28;20616;-76
2022/01/23 05:10:58;;;;;;;38.27;8.03;;;;;;;6.09;100.00;99409.78;5124463;28;20611;-76
2022/01/23 05:13:25;;;;;;;42.43;7.67;;;;;;;6.05;100.00;99418.31;5124678;28;20990;-76
2022/01/23 05:15:52;;;;;;;29.07;7.10;;;;;;;6.04;100.00;99422.78;5120546;28;20630;-76
2022/01/23 05:18:20;;;;;;;20.20;6.17;;;;;;;6.06;100.00;99438.53;5120519;28;20666;-76
2022/01/23 05:20:49;;;;;;;65.87;8.20;;;;;;;6.05;100.00;99436.88;5121107;28;20620;-76
2022/01/23 05:23:16;;;;;;;39.10;7.40;;;;;;;6.09;100.00;99438.13;5128096;28;20595;-76
2022/01/23 05:25:43;;;;;;;29.33;6.03;;;;;;;6.03;100.00;99434.44;5124912;27;20603;-76
2022/01/23 05:28:09;;;;;;;41.33;7.47;;;;;;;6.00;100.00;99441.97;5123450;28;20608;-76
2022/01/23 05:30:37;;;;;;;17.33;5.43;;;;;;;5.96;100.00;99441.53;5122929;28;20762;-76
2022/01/23 05:33:04;;;;;;;24.30;5.57;;;;;;;6.03;100.00;99438.91;5120209;28;20616;-76
2022/01/23 05:35:32;;;;;;;19.90;6.20;;;;;;;6.06;100.00;99431.41;5122863;28;20626;-76
2022/01/23 05:37:59;;;;;;;31.37;6.57;;;;;;;6.13;100.00;99432.22;5125834;28;20592;-76
2022/01/23 05:40:28;;;;;;;43.00;7.77;;;;;;;6.14;100.00;99431.22;5124405;28;20596;-77
2022/01/23 05:42:55;;;;;;;30.33;6.37;;;;;;;6.15;100.00;99435.50;5121590;28;20908;-76
2022/01/23 05:45:22;;;;;;;70.37;8.83;;;;;;;6.12;100.00;99432.44;5121942;28;20652;-76
2022/01/23 05:47:48;;;;;;;66.80;8.63;;;;;;;6.08;100.00;99426.69;5124862;28;20583;-76
2022/01/23 05:50:15;;;;;;;45.77;7.63;;;;;;;6.15;100.00;99422.25;5124648;28;20611;-76
2022/01/23 05:52:43;;;;;;;36.87;6.67;;;;;;;6.15;100.00;99419.59;5120966;28;21151;-76
2022/01/23 05:55:11;;;;;;;70.03;10.07;;;;;;;6.13;100.00;99421.63;5120415;28;20592;-76
2022/01/23 05:57:38;;;;;;;50.53;6.80;;;;;;;6.15;100.00;99424.91;5122949;28;20609;-76
2022/01/23 06:00:06;;;;;;;27.90;7.17;;;;;;;6.13;100.00;99418.97;5123010;28;20611;-76
2022/01/23 06:02:33;;;;;;;55.40;7.90;;;;;;;6.05;100.00;99421.78;5122616;28;20584;-76
2022/01/23 06:04:59;;;;;;;47.47;7.10;;;;;;;6.15;100.00;99422.25;5119422;28;20604;-76
2022/01/23 06:07:26;;;;;;;37.73;7.13;;;;;;;6.15;100.00;99419.59;5121445;28;20619;-77
2022/01/23 06:09:54;;;;;;;34.07;6.90;;;;;;;6.13;100.00;99421.63;5123807;28;21032;-77
2022/01/23 06:12:20;;;;;;;68.27;8.47;;;;;;;6.09;100.00;99427.53;5122452;28;20606;-76
2022/01/23 06:14:47;;;;;;;33.73;6.63;;;;;;;6.07;100.00;99421.56;5120424;28;20585;-76
2022/01/23 06:17:14;;;;;;;43.30;7.53;;;;;;;6.09;100.00;99431.00;5120191;28;20596;-76
2022/01/23 06:19:41;;;;;;;28.27;6.20;;;;;;;5.99;100.00;99435.84;5122256;28;20609;-76
2022/01/23 06:22:07;;;;;;;19.03;6.70;;;;;;;5.94;100.00;99438.28;5124060;28;20607;-77
2022/01/23 06:24:36;;;;;;;21.23;5.57;;;;;;;5.90;100.00;99437.84;5126747;28;21360;-76
2022/01/23 06:27:05;;;;;;;45.20;6.90;;;;;;;5.93;100.00;99445.41;5119006;28;20596;-77
2022/01/23 06:29:32;;;;;;;48.73;7.33;;;;;;;6.03;100.00;99445.06;5120472;28;20589;-77
2022/01/23 06:32:00;;;;;;;56.03;7.83;;;;;;;6.06;100.00;99451.78;5123324;28;20599;-76
2022/01/23 06:34:27;;;;;;;71.17;9.20;;;;;;;6.10;100.00;99459.13;5122297;28;20604;-76
2022/01/23 06:36:54;;;;;;;19.53;5.67;;;;;;;6.15;100.00;99464.69;5120336;28;20605;-77
2022/01/23 06:39:23;;;;;;;45.90;8.50;;;;;;;6.17;100.00;99469.78;5120521;28;20604;-77
2022/01/23 06:41:50;;;;;;;21.43;5.73;;;;;;;6.18;100.00;99466.94;5123913;28;20599;-76
2022/01/23 06:44:18;;;;;;;19.90;5.87;;;;;;;6.19;100.00;99457.97;5123649;28;21050;-76
2022/01/23 06:46:45;;;;;;;50.30;7.87;;;;;;;6.10;100.00;99474.22;5118901;28;20632;-76
2022/01/23 06:49:12;;;;;;;33.57;6.37;;;;;;;6.06;100.00;99473.84;5119640;28;20600;-76
2022/01/23 06:51:42;;;;;;;26.17;6.50;;;;;;;6.12;100.00;99482.84;5122319;28;20611;-76
2022/01/23 06:54:09;;;;;;;43.33;8.37;;;;;;;6.18;100.00;99493.47;5128047;28;20677;-76
2022/01/23 06:56:36;;;;;;;41.53;8.27;;;;;;;6.24;100.00;99495.34;5120971;28;20625;-76
2022/01/23 06:59:03;;;;;;;20.33;6.23;;;;;;;6.25;100.00;99506.78;5119755;28;20657;-76
2022/01/23 07:01:30;;;;;;;45.70;8.50;;;;;;;6.28;100.00;99507.19;5119583;28;20601;-77
2022/01/23 07:03:57;;;;;;;49.77;9.10;;;;;;;6.33;100.00;99507.44;5122032;28;20603;-76
2022/01/23 07:06:24;;;;;;;50.80;9.03;;;;;;;6.32;100.00;99511.09;5121366;28;20615;-77
2022/01/23 07:08:50;;;;;;;25.30;8.00;;;;;;;6.27;100.00;99516.19;5118797;28;20627;-77
2022/01/23 07:11:17;;;;;;;28.30;6.90;;;;;;;6.29;100.00;99514.13;5118428;28;20600;-76
2022/01/23 07:13:44;;;;;;;61.17;9.33;;;;;;;6.31;100.00;99525.38;5122378;28;20600;-76
2022/01/23 07:16:11;;;;;;;47.20;8.90;;;;;;;6.23;100.00;99533.50;5121540;28;20626;-76
2022/01/23 07:18:39;;;;;;;44.43;8.70;;;;;;;6.01;100.00;99537.22;5120000;28;20603;-76
2022/01/23 07:21:05;;;;;;;40.60;7.23;;;;;;;6.06;100.00;99534.84;5118572;28;20982;-76
2022/01/23 07:23:32;;;;;;;30.60;7.07;;;;;;;6.15;100.00;99532.84;5125692;28;20610;-76
2022/01/23 07:25:59;;;;;;;16.90;6.50;;;;;;;6.17;100.00;99539.59;5123002;28;20603;-77
2022/01/23 07:28:36;;;;;;;64.60;10.53;;;;;;;6.24;100.00;99537.78;5123391;28;20621;-77
2022/01/23 07:31:06;;;;;;;41.43;8.03;;;;;;;6.07;100.00;99544.41;5118767;28;21013;-76
2022/01/23 07:33:35;;;;;;;37.77;8.00;;;;;;;6.12;100.00;99542.00;5121614;28;20725;-76
2022/01/23 07:36:04;;;;;;;43.87;8.17;;;;;;;6.20;100.00;99541.84;5123204;28;20599;-76
2022/01/23 07:38:31;;;;;;;50.20;8.30;;;;;;;6.26;100.00;99534.94;5121191;28;20619;-76
2022/01/23 07:40:58;;;;;;;52.23;7.30;;;;;;;6.32;100.00;99537.63;5118895;28;20604;-77
2022/01/23 07:43:25;;;;;;;31.60;7.50;;;;;;;6.35;100.00;99537.22;5119262;28;20619;-77
2022/01/23 07:45:51;;;;;;;31.43;7.47;;;;;;;6.39;100.00;99542.97;5122070;28;20603;-76
2022/01/23 07:48:18;;;;;;;56.17;8.17;;;;;;;6.41;100.00;99539.09;5120759;28;20633;-76
2022/01/23 07:50:45;;;;;;;35.00;7.00;;;;;;;6.39;100.00;99538.50;5117377;28;20622;-77
2022/01/23 07:53:13;;;;;;;57.43;8.63;;;;;;;6.44;100.00;99541.38;5121589;28;20600;-77
2022/01/23 07:55:40;;;;;;;40.30;8.83;;;;;;;6.46;100.00;99541.19;5121472;28;20830;-77
2022/01/23 07:58:12;;;;;;;51.43;8.23;;;;;;;6.43;100.00;99539.75;5121617;28;20627;-77
2022/01/23 08:00:40;;;;;;;32.30;6.90;;;;;;;6.40;100.00;99541.97;5119184;28;20629;-76
2022/01/23 08:03:07;;;;;;;57.93;8.50;;;;;;;6.46;100.00;99531.38;5119340;28;20593;-76
2022/01/23 08:05:34;;;;;;;54.23;8.87;;;;;;;6.38;100.00;99528.88;5121046;28;20604;-76
2022/01/23 08:08:00;;;;;;;73.47;9.93;;;;;;;6.39;100.00;99532.34;5121388;28;20610;-77
2022/01/23 08:10:28;;;;;;;40.57;8.00;;;;;;;6.47;100.00;99532.19;5119943;28;20596;-77
2022/01/23 08:12:55;;;;;;;40.37;7.90;;;;;;;6.46;100.00;99528.72;5117132;28;20612;-76
2022/01/23 08:15:22;;;;;;;71.23;8.97;;;;;;;6.51;100.00;99541.41;5117516;28;20632;-76
2022/01/23 08:17:49;;;;;;;50.47;7.40;;;;;;;6.38;100.00;99539.50;5122229;28;20603;-76
2022/01/23 08:20:16;;;;;;;37.03;7.47;;;;;;;6.33;100.00;99541.94;5120800;28;20611;-76
2022/01/23 08:22:43;;;;;;;48.30;7.50;;;;;;;6.24;100.00;99545.75;5122655;28;20604;-77
2022/01/23 08:25:10;;;;;;;48.20;8.27;;;;;;;6.32;100.00;99542.94;5127441;28;20654;-76
2022/01/23 08:27:38;;;;;;;43.33;8.30;;;;;;;6.18;100.00;99533.28;5123605;28;20611;-76
2022/01/23 08:30:06;;;;;;;39.37;7.80;;;;;;;6.38;100.00;99534.19;5125029;28;20599;-76
2022/01/23 08:32:32;;;;;;;22.30;7.87;;;;;;;6.26;100.00;99538.41;5123797;28;20615;-76
2022/01/23 08:34:59;;;;;;;54.93;10.20;;;;;;;6.18;100.00;99538.59;5122062;28;20632;-77
2022/01/23 08:37:26;;;;;;;34.07;8.73;;;;;;;6.05;100.00;99535.84;5122715;28;20601;-76
2022/01/23 08:39:54;;;;;;;37.37;7.93;;;;;;;6.17;100.00;99547.53;5125564;28;20746;-76
2022/01/23 08:42:20;;;;;;;36.60;8.90;;;;;;;6.31;100.00;99549.25;5125830;28;20599;-77
2022/01/23 08:44:50;;;;;;;29.33;7.43;;;;;;;6.39;100.00;99554.41;5121122;28;20601;-76
2022/01/23 08:47:17;;;;;;;48.50;8.33;;;;;;;6.43;100.00;99562.81;5121817;28;20615;-76
2022/01/23 08:49:47;;;;;;;33.20;7.83;;;;;;;6.48;100.00;99560.38;5124654;28;20625;-76
2022/01/23 08:52:16;;;;;;;73.10;10.63;;;;;;;6.57;100.00;99569.81;5125731;28;20619;-77
2022/01/23 08:54:45;;;;;;;43.23;8.27;;;;;;;6.55;100.00;99563.06;5126100;28;21386;-77
2022/01/23 08:57:12;;;;;;;30.83;7.43;;;;;;;6.68;100.00;99563.13;5120545;28;20612;-77
2022/01/23 08:59:38;;;;;;;31.70;7.97;;;;;;;6.69;100.00;99559.44;5123400;28;20612;-77
2022/01/23 09:02:07;;;;;;;36.13;8.03;;;;;;;6.64;100.00;99567.19;5125035;28;20607;-76
2022/01/23 09:04:33;;;;;;;38.77;9.27;;;;;;;6.41;100.00;99567.47;5123074;28;20638;-77
2022/01/23 09:07:00;;;;;;;28.27;8.20;;;;;;;6.29;100.00;99569.03;5121607;28;20619;-76
2022/01/23 09:09:31;;;;;;;52.80;9.03;;;;;;;6.45;100.00;99563.41;5122642;28;20612;-76
2022/01/23 09:12:03;;;;;;;37.43;8.23;;;;;;;6.49;100.00;99565.50;5124209;28;20977;-76
2022/01/23 09:14:30;;;;;;;58.97;10.23;;;;;;;6.43;100.00;99573.41;5123799;28;20600;-76
2022/01/23 09:16:57;;;;;;;27.67;7.73;;;;;;;6.49;100.00;99573.47;5121682;28;20670;-76
2022/01/23 09:19:27;;;;;;;48.10;8.67;;;;;;;6.50;100.00;99575.09;5121071;28;20604;-76
2022/01/23 09:21:55;;;;;;;38.03;7.73;;;;;;;6.24;100.00;99574.94;5123773;28;20827;-76
2022/01/23 09:24:24;;;;;;;29.20;7.03;;;;;;;6.11;100.00;99572.19;5129890;28;20599;-76
2022/01/23 09:26:54;;;;;;;59.93;9.30;;;;;;;6.22;100.00;99576.94;5121569;28;20596;-76
2022/01/23 09:29:30;;;;;;;30.60;7.87;;;;;;;6.28;100.00;99573.50;5121281;28;20646;-76
2022/01/23 09:31:57;;;;;;;64.73;9.23;;;;;;;6.37;100.00;99576.84;5122774;28;20607;-76
2022/01/23 09:34:27;;;;;;;73.73;8.27;;;;;;;6.42;100.00;99577.09;5122839;28;20600;-76
2022/01/23 09:36:55;;;;;;;42.27;6.60;;;;;;;6.46;100.00;99575.69;5119653;28;20608;-76
2022/01/23 09:39:22;;;;;;;37.40;6.30;;;;;;;6.50;100.00;99588.34;5119971;28;20616;-76
2022/01/23 09:41:51;;;;;;;30.23;6.00;;;;;;;6.32;100.00;99581.91;5124622;28;20642;-77
2022/01/23 09:44:19;;;;;;;41.67;6.50;;;;;;;6.47;100.00;99580.78;5123587;28;20603;-77
2022/01/23 09:46:48;;;;;;;19.47;6.10;;;;;;;6.18;100.00;99578.38;5120217;28;20620;-76
2022/01/23 09:49:16;;;;;;;34.20;6.13;;;;;;;6.39;100.00;99574.81;5119991;28;20620;-77
2022/01/23 09:51:46;;;;;;;44.47;6.20;;;;;;;6.42;100.00;99582.38;5122768;28;20732;-76
2022/01/23 09:54:16;;;;;;;24.50;5.20;;;;;;;6.47;100.00;99572.81;5129469;28;20603;-76
2022/01/23 09:56:43;;;;;;;33.00;5.93;;;;;;;6.70;100.00;99579.66;5121178;28;20630;-76
2022/01/23 09:59:11;;;;;;;66.90;7.77;;;;;;;6.76;100.00;99576.22;5120886;28;20616;-76
2022/01/23 10:01:39;;;;;;;51.43;7.20;;;;;;;6.70;100.00;99575.19;5121965;28;20593;-77
2022/01/23 10:04:06;;;;;;;29.77;6.73;;;;;;;6.70;100.00;99580.50;5124534;28;20600;-77
2022/01/23 10:06:33;;;;;;;44.67;7.40;;;;;;;6.59;100.00;99573.09;5121523;28;20607;-77
2022/01/23 10:09:02;;;;;;;49.27;6.90;;;;;;;6.55;100.00;99581.66;5121473;28;20625;-76
2022/01/23 10:11:35;;;;;;;48.40;6.20;;;;;;;6.57;100.00;99576.94;5122434;28;20619;-77
2022/01/23 10:14:02;;;;;;;24.03;5.77;;;;;;;6.73;100.00;99588.06;5124742;28;20616;-77
2022/01/23 10:16:29;;;;;;;31.00;6.90;;;;;;;6.87;100.00;99584.44;5123603;28;20664;-77
2022/01/23 10:18:57;;;;;;;26.33;5.27;;;;;;;6.77;100.00;99578.69;5121259;28;20615;-76
2022/01/23 10:21:25;;;;;;;27.93;6.10;;;;;;;6.78;100.00;99582.16;5119830;28;20619;-76
2022/01/23 10:23:53;;;;;;;47.93;6.90;;;;;;;6.77;100.00;99584.00;5129155;28;20603;-77
2022/01/23 10:26:39;;;;;;;28.10;4.50;;;;;;;6.82;100.00;99578.09;5124079;28;20630;-76
2022/01/23 10:29:18;;;;;;;28.93;3.67;;;;;;;6.75;100.00;99587.84;5125863;28;20623;-77
2022/01/23 10:32:06;;;;;;;36.37;5.00;;;;;;;6.91;100.00;99576.91;5120534;28;20627;-77
2022/01/23 10:35:00;;;;;;;24.67;3.93;;;;;;;6.87;100.00;99579.13;5121712;28;20616;-76
2022/01/23 10:37:31;;;;;;;24.83;4.40;;;;;;;6.87;100.00;99579.13;5098564;28;20631;-76
2022/01/23 10:39:59;;;;;;;50.07;6.47;;;;;;;6.72;100.00;99580.28;5118570;28;20604;-76
2022/01/23 10:48:25;;;;;;;65.37;5.97;;;;;;;7.12;100.00;99575.97;5082685;28;20639;-76
2022/01/23 10:50:52;;;;;;;60.87;6.17;;;;;;;7.13;100.00;99573.09;5118702;28;20596;-76
2022/01/23 10:53:19;;;;;;;43.73;5.13;;;;;;;7.16;100.00;99558.59;5123739;28;20612;-77
2022/01/23 10:55:47;;;;;;;23.73;4.70;;;;;;;7.24;100.00;99558.41;5112198;28;20612;-77
2022/01/23 10:58:21;;;;;;;42.67;4.70;;;;;;;7.44;100.00;99549.44;5112032;28;20597;-76
2022/01/23 11:00:50;;;;;;;46.40;5.47;;;;;;;7.23;100.00;99549.63;5119852;28;20608;-77
2022/01/23 11:03:18;;;;;;;54.67;5.23;;;;;;;6.90;100.00;99540.75;5118469;28;20631;-77
2022/01/23 11:05:45;;;;;;;37.70;5.43;;;;;;;7.17;100.00;99547.78;5121707;28;20608;-77
2022/01/23 11:08:20;;;;;;;18.67;3.40;;;;;;;7.27;100.00;99550.03;5122727;28;20607;-77
2022/01/23 11:10:53;;;;;;;76.40;6.90;;;;;;;7.25;100.00;99554.72;5117991;28;20607;-77
2022/01/23 11:19:09;;;;;;;61.27;6.03;;;;;;;6.99;100.00;99550.19;5076594;28;20617;-76
2022/01/23 11:21:38;;;;;;;55.00;6.90;;;;;;;6.81;100.00;99549.88;5062190;28;20680;-77
2022/01/23 11:24:05;;;;;;;25.90;4.67;;;;;;;6.89;100.00;99549.72;5093868;28;20604;-77
2022/01/23 11:26:32;;;;;;;30.00;4.30;;;;;;;6.95;100.00;99559.56;5119648;28;20664;-77
2022/01/23 11:29:08;;;;;;;60.73;7.03;;;;;;;7.03;100.00;99570.00;5117749;28;20669;-77
2022/01/23 11:31:37;;;;;;;41.33;6.33;;;;;;;6.98;100.00;99567.94;5121582;28;20819;-76
2022/01/23 11:34:05;;;;;;;57.93;6.83;;;;;;;6.86;100.00;99566.88;5121548;28;20604;-76
2022/01/23 11:36:33;;;;;;;35.23;4.20;;;;;;;6.70;100.00;99561.91;5119916;28;20607;-76
2022/01/23 11:39:08;;;;;;;22.70;5.03;;;;;;;6.53;100.00;99554.50;5118009;28;20593;-76
2022/01/23 11:56:48;;;;;;;43.47;5.77;;;;;;;7.15;100.00;99557.75;5118865;28;20670;-77
2022/01/23 11:59:25;;;;;;;56.80;6.50;;;;;;;7.27;100.00;99556.16;5082969;28;20606;-78
2022/01/23 12:02:22;;;;;;;50.47;6.07;;;;;;;7.21;100.00;99556.16;5100385;28;20624;-78
2022/01/23 12:05:21;;;;;;;32.93;5.40;;;;;;;7.17;100.00;99552.25;5106205;28;20621;-77
2022/01/23 12:08:35;;;;;;;35.87;5.40;;;;;;;7.14;100.00;99558.81;5117734;28;20693;-78
2022/01/23 12:17:45;;;;;;;52.73;5.40;;;;;;;7.26;100.00;99562.50;5117880;28;20619;-77
2022/01/23 12:20:12;;;;;;;21.90;3.83;;;;;;;6.96;100.00;99551.38;5112243;28;20621;-76
2022/01/23 12:22:43;;;;;;;19.53;3.30;;;;;;;7.12;100.00;99550.19;5120255;28;20600;-77
2022/01/23 12:25:22;;;;;;;28.93;4.17;;;;;;;7.24;100.00;99555.75;5118566;28;20982;-77
2022/01/23 12:28:15;;;;;;;52.33;5.67;;;;;;;7.24;100.00;99553.09;5117509;28;20604;-77
2022/01/23 12:30:44;;;;;;;35.57;4.87;;;;;;;7.23;100.00;99557.59;5121987;28;20612;-77
2022/01/23 12:33:30;;;;;;;54.53;5.90;;;;;;;7.12;100.00;99555.50;5128573;28;20669;-77
2022/01/23 12:36:05;;;;;;;31.10;4.53;;;;;;;7.06;100.00;99551.00;5125302;28;20595;-76
2022/01/23 12:38:36;;;;;;;37.10;4.60;;;;;;;7.18;100.00;99553.91;5125333;28;20596;-77
2022/01/23 12:41:23;;;;;;;54.17;6.60;;;;;;;7.14;100.00;99548.19;5126254;28;20630;-77
2022/01/23 12:43:52;;;;;;;32.53;5.10;;;;;;;7.19;100.00;99551.03;5110724;28;20597;-76
2022/01/23 12:46:36;;;;;;;51.43;6.73;;;;;;;7.40;100.00;99540.22;5109968;28;20608;-77
2022/01/23 12:49:22;;;;;;;21.77;4.57;;;;;;;7.42;100.00;99527.56;5111490;28;20600;-76
2022/01/23 12:51:50;;;;;;;27.00;4.87;;;;;;;7.29;100.00;99524.91;5119966;28;20611;-76
2022/01/23 12:54:29;;;;;;;34.67;6.57;;;;;;;7.40;100.00;99524.28;5127633;28;20607;-77
2022/01/23 12:56:56;;;;;;;35.87;5.60;;;;;;;7.36;100.00;99523.06;5119143;28;20607;-76
2022/01/23 12:59:32;;;;;;;24.17;4.77;;;;;;;7.16;100.00;99535.50;5118884;28;20647;-76
2022/01/23 13:02:03;;;;;;;28.10;4.33;;;;;;;7.16;100.00;99535.50;5120993;28;20611;-77
2022/01/23 13:04:33;;;;;;;39.13;5.07;;;;;;;7.12;100.00;99528.94;5119202;28;20615;-77
2022/01/23 13:07:13;;;;;;;46.23;4.90;;;;;;;7.22;100.00;99524.06;5118910;28;20600;-76
2022/01/23 13:09:48;;;;;;;68.03;6.73;;;;;;;7.12;100.00;99534.25;5123751;28;20607;-77
2022/01/23 13:12:28;;;;;;;58.90;5.83;;;;;;;7.01;100.00;99532.19;5124127;28;20625;-75
2022/01/23 13:15:10;;;;;;;17.87;3.30;;;;;;;7.08;100.00;99533.03;5122370;28;20597;-75
2022/01/23 13:17:51;;;;;;;35.30;4.00;;;;;;;7.21;100.00;99534.91;5124933;28;20616;-74
2022/01/23 13:27:03;;;;;;;53.93;4.23;;;;;;;7.16;100.00;99510.75;5124346;28;21084;-76
2022/01/23 13:32:18;;;;;;;59.73;4.90;;;;;;;7.35;100.00;99508.13;5125107;28;20660;-76
2022/01/23 13:34:49;;;;;;;30.07;3.97;;;;;;;7.40;100.00;99496.88;5121906;28;20609;-76
2022/01/23 13:37:19;;;;;;;28.00;2.83;;;;;;;7.44;100.00;99498.13;5121887;28;20646;-76
2022/01/23 13:39:51;;;;;;;91.53;5.83;;;;;;;7.30;100.00;99489.34;5123444;28;20618;-77
2022/01/23 13:42:36;;;;;;;36.40;3.87;;;;;;;7.23;100.00;99493.00;5124799;28;20603;-77
2022/01/23 13:53:49;;;;;;;57.33;4.30;;;;;;;7.12;100.00;99505.03;5124016;28;20611;-77
2022/01/23 13:59:07;;;;;;;42.40;4.60;;;;;;;7.02;100.00;99525.88;5120419;28;20616;-76
2022/01/23 14:01:48;;;;;;;42.03;4.57;;;;;;;6.94;100.00;99531.34;5123350;28;20601;-76
2022/01/23 14:04:16;;;;;;;51.90;4.47;;;;;;;6.82;100.00;99517.00;5123618;28;20600;-76
2022/01/23 14:06:43;;;;;;;34.80;3.97;;;;;;;6.88;100.00;99517.03;5121646;28;20611;-77
2022/01/23 14:09:13;;;;;;;48.90;3.97;;;;;;;6.98;100.00;99512.16;5120862;28;20631;-77
2022/01/23 14:11:40;;;;;;;37.90;3.73;;;;;;;7.07;100.00;99518.94;5123635;28;20593;-76
2022/01/23 14:14:19;;;;;;;43.67;4.57;;;;;;;7.10;100.00;99520.38;5123334;28;20596;-77
2022/01/23 14:16:48;;;;;;;27.20;3.67;;;;;;;7.11;100.00;99527.31;5119831;28;20605;-76
2022/01/23 14:19:22;;;;;;;22.60;3.60;;;;;;;7.11;100.00;99529.97;5119588;28;20650;-76
2022/01/23 14:21:51;;;;;;;29.67;3.93;;;;;;;7.21;100.00;99525.06;5120289;28;21529;-76
2022/01/23 14:24:25;;;;;;;39.63;4.03;;;;;;;7.12;100.00;99523.63;5128207;28;21352;-76
2022/01/23 14:27:03;;;;;;;45.43;5.60;;;;;;;7.22;100.00;99533.88;5119482;28;20609;-76
2022/01/23 14:29:34;;;;;;;59.50;5.67;;;;;;;7.22;100.00;99534.69;5121725;28;20653;-76
2022/01/23 14:32:06;;;;;;;48.50;4.67;;;;;;;7.01;100.00;99532.19;5126208;28;20799;-76
2022/01/23 14:34:33;;;;;;;47.70;4.17;;;;;;;7.05;100.00;99533.44;5122237;28;20592;-76
2022/01/23 14:37:11;;;;;;;19.13;2.70;;;;;;;7.16;100.00;99529.34;5119899;28;20603;-76